Time;durP1;ratioP1;P1;durP2;ratioP2;P2;SDS_P1;SDS_P2;PMS_P1;PMS_P2;Temp;Humidity;BMP_temperature;BMP_pressure;BME280_temperature;BME280_humidity;BME280_pressure;Samples;Min_cycle;Max_cycle;Signal;HPM_P1;HPM_P2
2024/01/19 09:53:12;;;;;;;11.50;5.17;;;-0.10;99.90;;;;;;4914269;29;20561;-76
2024/01/19 09:55:39;;;;;;;17.40;5.30;;;0.00;99.90;;;;;;4918332;29;20296;-75
2024/01/19 09:58:07;;;;;;;10.30;4.30;;;0.10;99.90;;;;;;4918022;29;20232;-76
2024/01/19 10:00:33;;;;;;;13.33;5.40;;;0.20;99.90;;;;;;4918023;29;20771;-75
2024/01/19 10:03:02;;;;;;;10.73;4.73;;;0.30;99.90;;;;;;4918103;29;20212;-75
2024/01/19 10:05:30;;;;;;;9.97;5.13;;;0.50;99.90;;;;;;4918458;29;20244;-77
2024/01/19 10:07:58;;;;;;;15.30;5.40;;;0.60;99.90;;;;;;4917983;29;20758;-76
2024/01/19 10:10:26;;;;;;;9.33;4.30;;;0.80;99.90;;;;;;4918199;29;20216;-76
2024/01/19 10:12:53;;;;;;;14.97;4.90;;;0.80;99.90;;;;;;4918117;29;20550;-75
2024/01/19 10:15:20;;;;;;;14.20;5.77;;;0.90;99.90;;;;;;4918108;29;20210;-75
2024/01/19 10:17:47;;;;;;;9.50;4.23;;;0.80;99.90;;;;;;4918175;29;20261;-76
2024/01/19 10:20:16;;;;;;;8.03;4.27;;;1.00;99.90;;;;;;4918111;29;20210;-75
2024/01/19 10:22:43;;;;;;;8.43;4.43;;;1.00;99.90;;;;;;4917361;29;20216;-76
2024/01/19 10:25:12;;;;;;;12.37;5.10;;;0.80;99.90;;;;;;4917808;29;20300;-76
2024/01/19 10:27:44;;;;;;;11.43;4.70;;;0.90;99.90;;;;;;4917801;29;20233;-75
2024/01/19 10:30:13;;;;;;;10.27;4.87;;;0.90;99.90;;;;;;4917642;29;20660;-77
2024/01/19 10:32:40;;;;;;;9.10;3.77;;;1.00;99.90;;;;;;4917866;29;20245;-78
2024/01/19 10:35:09;;;;;;;11.93;4.57;;;1.20;99.90;;;;;;4917611;29;20209;-75
2024/01/19 10:37:36;;;;;;;10.60;4.13;;;1.20;99.90;;;;;;4917171;29;20726;-76
2024/01/19 10:40:17;;;;;;;12.47;4.53;;;1.40;99.90;;;;;;4917446;29;20220;-77
2024/01/19 10:42:46;;;;;;;9.57;4.10;;;1.50;99.90;;;;;;4917841;29;20301;-76
2024/01/19 10:45:21;;;;;;;8.57;3.90;;;1.60;99.90;;;;;;4917603;29;20205;-75
2024/01/19 10:47:49;;;;;;;10.40;3.90;;;1.70;99.90;;;;;;4917395;29;20596;-77
2024/01/19 10:50:17;;;;;;;6.83;3.47;;;1.80;99.90;;;;;;4917260;29;20205;-77
2024/01/19 10:52:46;;;;;;;9.13;3.87;;;1.70;99.90;;;;;;4917014;29;20333;-76
2024/01/19 10:55:20;;;;;;;6.17;3.33;;;1.50;99.90;;;;;;4917329;29;20618;-77
2024/01/19 10:57:50;;;;;;;9.23;3.87;;;1.50;99.90;;;;;;4917421;29;20269;-77
2024/01/19 11:00:22;;;;;;;11.67;4.17;;;1.70;99.90;;;;;;4917064;29;20256;-78
2024/01/19 11:02:52;;;;;;;10.00;3.97;;;1.70;99.90;;;;;;4917195;29;20213;-78
2024/01/19 11:05:20;;;;;;;8.87;4.20;;;1.60;99.90;;;;;;4917292;29;20277;-76
2024/01/19 11:07:50;;;;;;;12.00;3.83;;;1.70;99.90;;;;;;4917026;29;20712;-75
2024/01/19 11:10:17;;;;;;;8.83;4.13;;;1.90;99.90;;;;;;4917243;29;20241;-77
2024/01/19 11:12:51;;;;;;;8.53;3.87;;;1.70;99.90;;;;;;4916833;29;20289;-77
2024/01/19 11:15:29;;;;;;;8.43;3.87;;;1.70;99.90;;;;;;4917192;29;20239;-76
2024/01/19 11:18:00;;;;;;;6.33;3.10;;;1.70;99.90;;;;;;4917263;29;20296;-76
2024/01/19 11:20:28;;;;;;;8.20;3.40;;;1.90;99.90;;;;;;4917165;29;20210;-76
2024/01/19 11:22:55;;;;;;;8.77;3.60;;;1.90;99.90;;;;;;4916535;29;20652;-76
2024/01/19 11:25:34;;;;;;;11.63;4.40;;;2.00;99.90;;;;;;4916965;29;20209;-76
2024/01/19 11:28:10;;;;;;;6.63;3.10;;;2.00;99.90;;;;;;4916494;29;20771;-77
2024/01/19 11:30:50;;;;;;;8.70;3.27;;;1.90;99.90;;;;;;4917094;29;20220;-75
2024/01/19 11:33:18;;;;;;;11.33;3.67;;;2.00;99.90;;;;;;4917168;29;20629;-77
2024/01/19 11:35:48;;;;;;;10.53;3.63;;;2.00;99.90;;;;;;4916116;29;20205;-77
2024/01/19 11:38:46;;;;;;;8.20;4.00;;;2.10;99.90;;;;;;4916565;29;20233;-77
2024/01/19 11:41:44;;;;;;;9.20;3.50;;;2.30;99.90;;;;;;4917066;29;20549;-76
2024/01/19 11:44:45;;;;;;;6.70;3.77;;;2.30;99.90;;;;;;4916932;29;20601;-77
2024/01/19 11:47:40;;;;;;;7.17;3.60;;;2.30;99.90;;;;;;4916511;29;20321;-77
2024/01/19 11:50:08;;;;;;;11.07;4.00;;;2.20;99.90;;;;;;4912231;29;20213;-76
2024/01/19 11:52:43;;;;;;;7.87;3.47;;;2.20;99.90;;;;;;4916307;29;20233;-76
2024/01/19 11:55:45;;;;;;;9.70;4.47;;;2.40;99.90;;;;;;4916685;29;20567;-77
2024/01/19 11:58:38;;;;;;;5.90;3.30;;;2.40;99.90;;;;;;4909519;29;20233;-77
2024/01/19 12:01:08;;;;;;;6.00;3.43;;;2.50;99.90;;;;;;4916339;29;20573;-78
2024/01/19 12:03:36;;;;;;;8.57;3.07;;;2.40;99.90;;;;;;4916428;29;20213;-77
2024/01/19 12:06:04;;;;;;;9.23;3.60;;;2.40;99.90;;;;;;4916662;29;20216;-76
2024/01/19 12:08:31;;;;;;;9.07;3.20;;;2.40;99.90;;;;;;4916560;29;20237;-76
2024/01/19 12:11:05;;;;;;;9.90;3.13;;;2.40;99.90;;;;;;4916567;29;20308;-77
2024/01/19 12:13:33;;;;;;;6.13;2.83;;;2.40;99.90;;;;;;4916487;29;20213;-77
2024/01/19 12:16:00;;;;;;;7.90;3.30;;;2.60;99.90;;;;;;4916361;29;20612;-75
2024/01/19 12:18:29;;;;;;;7.20;3.03;;;2.60;99.90;;;;;;4916380;29;20783;-76
2024/01/19 12:20:57;;;;;;;7.60;2.87;;;2.70;99.90;;;;;;4916595;29;20220;-75
2024/01/19 12:23:25;;;;;;;7.70;3.37;;;2.80;99.90;;;;;;4916354;29;20305;-76
2024/01/19 12:26:04;;;;;;;9.30;2.37;;;2.70;99.90;;;;;;4916453;29;20209;-76
2024/01/19 12:28:33;;;;;;;6.23;3.13;;;2.80;99.90;;;;;;4916323;29;20236;-75
2024/01/19 12:31:00;;;;;;;5.83;2.97;;;2.70;99.90;;;;;;4916337;29;20212;-75
2024/01/19 12:33:29;;;;;;;7.37;3.07;;;2.70;99.90;;;;;;4916720;29;20210;-76
2024/01/19 12:36:11;;;;;;;8.97;3.60;;;2.80;99.90;;;;;;4916240;29;20580;-76
2024/01/19 12:38:39;;;;;;;7.90;3.37;;;2.60;99.90;;;;;;4916186;29;20573;-76
2024/01/19 12:41:09;;;;;;;8.57;3.20;;;2.70;99.90;;;;;;4915951;29;20210;-77
2024/01/19 12:43:36;;;;;;;8.03;3.63;;;2.80;99.90;;;;;;4916242;29;20217;-76
2024/01/19 12:46:05;;;;;;;5.90;2.70;;;2.90;99.90;;;;;;4916423;29;20300;-77
2024/01/19 12:48:34;;;;;;;4.30;2.63;;;3.10;99.90;;;;;;4919181;29;20726;-77
2024/01/19 12:51:04;;;;;;;7.87;3.17;;;3.10;99.90;;;;;;4919492;29;20213;-76
2024/01/19 12:53:32;;;;;;;9.17;3.07;;;3.10;99.90;;;;;;4919450;29;20221;-76
2024/01/19 12:56:00;;;;;;;6.07;3.43;;;3.10;99.90;;;;;;4919790;29;20273;-77
2024/01/19 12:58:27;;;;;;;8.17;3.00;;;3.00;99.90;;;;;;4919616;29;20316;-76
2024/01/19 13:01:03;;;;;;;12.87;3.27;;;3.00;99.90;;;;;;4919443;29;20241;-76
2024/01/19 13:03:30;;;;;;;9.33;4.30;;;3.00;99.90;;;;;;4919480;29;20217;-76
2024/01/19 13:06:03;;;;;;;7.60;3.33;;;3.20;99.90;;;;;;4919158;29;20310;-76
2024/01/19 13:08:30;;;;;;;5.30;2.73;;;3.20;99.90;;;;;;4919305;29;20315;-76
2024/01/19 13:11:06;;;;;;;4.87;2.80;;;3.20;99.90;;;;;;4919496;29;20304;-76
2024/01/19 13:13:33;;;;;;;9.30;4.07;;;3.00;99.90;;;;;;4919081;29;20292;-77
2024/01/19 13:16:12;;;;;;;9.23;2.93;;;3.10;99.90;;;;;;4919294;29;20300;-75
2024/01/19 13:18:39;;;;;;;5.60;3.20;;;3.10;99.90;;;;;;4918689;29;20284;-77
2024/01/19 13:21:15;;;;;;;6.93;2.73;;;3.20;99.90;;;;;;4918238;29;20301;-77
2024/01/19 13:23:43;;;;;;;9.70;3.60;;;3.10;99.90;;;;;;4918546;29;20292;-77
2024/01/19 13:26:17;;;;;;;4.77;2.53;;;3.00;99.90;;;;;;4918725;29;20209;-77
2024/01/19 13:28:44;;;;;;;4.43;2.50;;;2.80;99.90;;;;;;4918390;29;20229;-77
2024/01/19 13:31:11;;;;;;;7.60;3.23;;;2.80;99.90;;;;;;4918397;29;20210;-75
2024/01/19 13:33:42;;;;;;;8.97;3.23;;;2.80;99.90;;;;;;4918409;29;20277;-75
2024/01/19 13:36:09;;;;;;;7.33;2.90;;;2.80;99.90;;;;;;4918610;29;20236;-76
2024/01/19 13:38:37;;;;;;;7.00;3.57;;;2.90;99.90;;;;;;4918387;29;20316;-75
2024/01/19 13:41:05;;;;;;;5.50;2.53;;;2.90;99.90;;;;;;4918370;29;20206;-76
2024/01/19 13:43:32;;;;;;;8.03;3.50;;;2.90;99.90;;;;;;4918264;29;20218;-75
2024/01/19 13:45:59;;;;;;;6.20;2.77;;;3.00;99.90;;;;;;4918583;29;20213;-76
2024/01/19 13:48:26;;;;;;;7.03;2.70;;;3.00;99.90;;;;;;4918508;29;20236;-76
2024/01/19 13:50:53;;;;;;;6.60;2.97;;;2.90;99.90;;;;;;4918250;29;20213;-76
2024/01/19 13:53:20;;;;;;;4.77;2.90;;;3.00;99.90;;;;;;4918015;29;20328;-75
2024/01/19 13:55:48;;;;;;;6.97;2.47;;;2.90;99.90;;;;;;4918213;29;20218;-77
2024/01/19 13:58:15;;;;;;;5.87;2.77;;;3.00;99.90;;;;;;4917443;29;20229;-76
2024/01/19 14:00:42;;;;;;;7.40;3.40;;;3.10;99.90;;;;;;4918112;29;20210;-75
2024/01/19 14:03:09;;;;;;;7.67;3.17;;;3.00;99.90;;;;;;4918104;29;20209;-74
2024/01/19 14:05:37;;;;;;;6.53;3.37;;;3.00;99.90;;;;;;4918024;29;20210;-75
2024/01/19 14:08:05;;;;;;;6.70;2.67;;;3.00;99.90;;;;;;4917458;29;20780;-77
2024/01/19 14:10:32;;;;;;;8.17;3.73;;;3.00;99.90;;;;;;4918029;29;20215;-77
2024/01/19 14:13:01;;;;;;;8.57;3.43;;;2.90;99.90;;;;;;4917971;29;20237;-75
2024/01/19 14:15:27;;;;;;;7.73;3.47;;;2.90;99.90;;;;;;4917904;29;20395;-76
2024/01/19 14:17:55;;;;;;;8.10;3.20;;;3.00;99.90;;;;;;4917431;29;20229;-76
2024/01/19 14:20:21;;;;;;;8.63;2.87;;;2.80;99.90;;;;;;4917646;29;20237;-76
2024/01/19 14:22:48;;;;;;;5.57;2.87;;;2.80;99.90;;;;;;4917438;29;20538;-76
2024/01/19 14:25:15;;;;;;;8.87;3.30;;;2.90;99.90;;;;;;4917666;29;20238;-77
2024/01/19 14:27:42;;;;;;;9.40;3.67;;;2.90;99.90;;;;;;4917457;29;20321;-77
2024/01/19 14:30:11;;;;;;;9.80;4.10;;;2.90;99.90;;;;;;4917653;29;20300;-75
2024/01/19 14:32:38;;;;;;;9.43;3.00;;;2.90;99.90;;;;;;4917384;29;20259;-76
2024/01/19 14:35:06;;;;;;;6.87;3.93;;;2.90;99.90;;;;;;4917409;29;20661;-76
2024/01/19 14:37:33;;;;;;;9.60;3.47;;;2.80;99.90;;;;;;4916680;29;20234;-76
2024/01/19 14:40:03;;;;;;;9.53;3.73;;;2.70;99.90;;;;;;4917053;29;20610;-77
2024/01/19 14:42:29;;;;;;;11.53;3.97;;;2.80;99.90;;;;;;4917018;29;20227;-75
2024/01/19 14:44:56;;;;;;;6.27;3.07;;;2.80;99.90;;;;;;4916806;29;20216;-75
2024/01/19 14:47:24;;;;;;;6.27;2.70;;;2.80;99.90;;;;;;4916870;29;20233;-76
2024/01/19 14:49:51;;;;;;;8.47;3.53;;;2.70;99.90;;;;;;4917014;29;20209;-76
2024/01/19 14:52:19;;;;;;;7.13;3.27;;;2.70;99.90;;;;;;4916763;29;20272;-75
2024/01/19 14:54:48;;;;;;;7.53;3.53;;;2.70;99.90;;;;;;4917470;29;20209;-77
2024/01/19 14:57:15;;;;;;;8.00;3.53;;;2.70;99.90;;;;;;4916780;29;20341;-76
2024/01/19 14:59:41;;;;;;;8.97;3.43;;;2.60;99.90;;;;;;4916668;29;20767;-76
2024/01/19 15:02:08;;;;;;;8.33;4.47;;;2.50;99.90;;;;;;4917023;29;20213;-75
2024/01/19 15:04:37;;;;;;;11.33;3.90;;;2.40;99.90;;;;;;4910580;29;20212;-79
2024/01/19 15:07:04;;;;;;;8.27;3.43;;;2.30;99.90;;;;;;4914990;29;20249;-76
2024/01/19 15:09:31;;;;;;;9.10;4.90;;;2.40;99.90;;;;;;4914516;29;20212;-74
2024/01/19 15:11:58;;;;;;;8.00;3.17;;;2.40;99.90;;;;;;4915095;29;20292;-74
2024/01/19 15:14:25;;;;;;;11.50;3.73;;;2.30;99.90;;;;;;4914850;29;20840;-74
2024/01/19 15:16:51;;;;;;;8.10;3.40;;;2.30;99.90;;;;;;4915407;29;20251;-75
2024/01/19 15:19:18;;;;;;;4.80;2.90;;;2.20;99.90;;;;;;4914705;29;20207;-76
2024/01/19 15:21:47;;;;;;;11.43;3.27;;;2.10;99.90;;;;;;4914912;29;20653;-77
2024/01/19 15:24:13;;;;;;;6.60;3.37;;;2.00;99.90;;;;;;4914885;29;20363;-78
2024/01/19 15:26:40;;;;;;;6.30;3.00;;;2.00;99.90;;;;;;4914946;29;20209;-78
2024/01/19 15:29:13;;;;;;;6.47;2.83;;;2.00;99.90;;;;;;4914738;29;20289;-78
2024/01/19 15:31:39;;;;;;;6.50;3.60;;;2.00;99.90;;;;;;4914623;29;20248;-77
2024/01/19 15:34:06;;;;;;;9.17;3.67;;;1.90;99.90;;;;;;4913634;29;20324;-75
2024/01/19 15:36:34;;;;;;;7.23;4.13;;;1.90;99.90;;;;;;4914594;29;20300;-77
2024/01/19 15:39:02;;;;;;;8.13;3.13;;;2.00;99.90;;;;;;4913876;29;20609;-82
2024/01/19 15:41:30;;;;;;;6.87;3.53;;;2.00;99.90;;;;;;4895380;29;20618;-76
2024/01/19 15:43:57;;;;;;;8.17;4.27;;;2.00;99.90;;;;;;4895303;29;20577;-76
2024/01/19 15:46:25;;;;;;;6.73;3.37;;;1.80;99.90;;;;;;4913405;29;20245;-76
2024/01/19 15:48:52;;;;;;;9.37;4.20;;;1.80;99.90;;;;;;4914288;29;20348;-76
2024/01/19 15:51:22;;;;;;;11.53;3.87;;;1.80;99.90;;;;;;4914109;29;20253;-75
2024/01/19 15:53:49;;;;;;;8.63;3.87;;;1.80;99.90;;;;;;4914506;29;20502;-77
2024/01/19 15:56:21;;;;;;;9.97;4.23;;;1.70;99.90;;;;;;4914889;29;20225;-77
2024/01/19 15:58:48;;;;;;;11.70;5.03;;;1.60;99.90;;;;;;4914789;29;20316;-75
2024/01/19 16:01:16;;;;;;;8.40;3.93;;;1.50;99.90;;;;;;4914777;29;20564;-77
2024/01/19 16:03:43;;;;;;;9.60;4.03;;;1.50;99.90;;;;;;4914408;29;20214;-75
2024/01/19 16:06:10;;;;;;;6.73;3.40;;;1.40;99.90;;;;;;4914182;29;20288;-75
2024/01/19 16:08:37;;;;;;;8.27;3.90;;;1.30;99.90;;;;;;4914310;29;20312;-75
2024/01/19 16:11:05;;;;;;;9.87;4.07;;;1.30;99.90;;;;;;4913735;29;20220;-75
2024/01/19 16:13:34;;;;;;;8.17;3.73;;;1.20;99.90;;;;;;4914574;29;20237;-74
2024/01/19 16:16:05;;;;;;;9.80;3.87;;;1.10;99.90;;;;;;4913446;29;20410;-77
2024/01/19 16:18:32;;;;;;;10.50;4.10;;;1.10;99.90;;;;;;4914093;29;20316;-78
2024/01/19 16:20:59;;;;;;;10.33;3.90;;;1.00;99.90;;;;;;4914215;29;20732;-78
2024/01/19 16:23:25;;;;;;;13.63;4.20;;;1.00;99.90;;;;;;4917577;29;20292;-75
2024/01/19 16:25:52;;;;;;;11.67;4.97;;;1.00;99.90;;;;;;4917834;29;20309;-77
2024/01/19 16:28:19;;;;;;;10.80;4.90;;;0.90;99.90;;;;;;4913693;29;20249;-76
2024/01/19 16:30:49;;;;;;;10.87;4.40;;;1.00;99.90;;;;;;4917541;29;20300;-75
2024/01/19 16:33:16;;;;;;;11.53;4.37;;;0.80;99.90;;;;;;4918035;29;20241;-79
2024/01/19 16:35:43;;;;;;;9.33;3.37;;;0.90;99.90;;;;;;4917593;29;20300;-75
2024/01/19 16:38:09;;;;;;;12.23;5.60;;;0.80;99.90;;;;;;4917946;29;20316;-74
2024/01/19 16:40:36;;;;;;;12.73;4.23;;;0.70;99.90;;;;;;4918629;29;20568;-76
2024/01/19 16:43:04;;;;;;;14.43;5.10;;;0.60;99.90;;;;;;4919132;29;20213;-75
2024/01/19 16:45:31;;;;;;;10.63;4.47;;;0.40;99.90;;;;;;4918687;29;20210;-75
2024/01/19 16:47:59;;;;;;;13.90;4.60;;;0.30;99.90;;;;;;4919127;29;20237;-77
2024/01/19 16:50:26;;;;;;;14.53;5.10;;;0.00;99.90;;;;;;4918613;29;20216;-74
2024/01/19 16:52:53;;;;;;;12.60;4.77;;;0.00;99.90;;;;;;4918349;29;20273;-75
2024/01/19 16:55:20;;;;;;;12.47;4.57;;;-0.10;99.90;;;;;;4917914;29;20210;-74
2024/01/19 16:57:47;;;;;;;10.17;5.50;;;-0.10;99.90;;;;;;4918565;29;20568;-75
2024/01/19 17:00:16;;;;;;;18.77;5.10;;;-0.10;99.90;;;;;;4918455;29;20205;-73
2024/01/19 17:02:43;;;;;;;17.47;4.77;;;-0.10;99.90;;;;;;4918391;29;20213;-74
2024/01/19 17:05:12;;;;;;;14.67;5.23;;;-0.10;99.90;;;;;;4918270;29;20209;-75
2024/01/19 17:07:39;;;;;;;10.93;3.80;;;-0.10;99.90;;;;;;4918458;29;20233;-72
2024/01/19 17:10:07;;;;;;;11.27;5.13;;;0.00;99.90;;;;;;4918981;29;20216;-74
2024/01/19 17:12:34;;;;;;;10.57;5.67;;;-0.10;99.90;;;;;;4918631;29;20228;-75
2024/01/19 17:15:01;;;;;;;13.27;5.60;;;0.00;99.90;;;;;;4918738;29;20210;-75
2024/01/19 17:17:28;;;;;;;19.93;5.20;;;-0.10;99.90;;;;;;4918066;29;20229;-77
2024/01/19 17:19:54;;;;;;;12.40;4.47;;;-0.10;99.90;;;;;;4918190;29;20206;-75
2024/01/19 17:22:22;;;;;;;16.97;4.50;;;-0.10;99.90;;;;;;4917697;29;20672;-75
2024/01/19 17:24:49;;;;;;;13.33;5.60;;;-0.20;99.90;;;;;;4917926;29;20248;-75
2024/01/19 17:27:17;;;;;;;11.47;5.77;;;-0.30;99.90;;;;;;4915787;29;20230;-73
2024/01/19 17:29:43;;;;;;;17.13;4.50;;;-0.30;99.90;;;;;;4915113;29;20285;-74
2024/01/19 17:32:10;;;;;;;15.47;5.40;;;-0.30;99.90;;;;;;4916741;29;20300;-76
2024/01/19 17:34:37;;;;;;;13.23;4.73;;;-0.30;99.90;;;;;;4916228;29;20237;-72
2024/01/19 17:37:05;;;;;;;10.53;3.77;;;-0.40;99.90;;;;;;4917055;29;20208;-74
2024/01/19 17:39:34;;;;;;;15.57;5.17;;;-0.30;99.90;;;;;;4917737;29;20323;-75
2024/01/19 17:42:01;;;;;;;18.70;4.87;;;-0.30;99.90;;;;;;4918180;29;20209;-77
2024/01/19 17:44:28;;;;;;;15.53;5.63;;;-0.40;99.90;;;;;;4918009;29;20201;-75
2024/01/19 17:46:56;;;;;;;14.87;4.60;;;-0.40;99.90;;;;;;4917959;29;20209;-74
2024/01/19 17:49:23;;;;;;;10.43;4.97;;;-0.30;99.90;;;;;;4917791;29;20662;-76
2024/01/19 17:51:50;;;;;;;14.30;4.23;;;-0.40;99.90;;;;;;4917605;29;20682;-77
2024/01/19 17:54:19;;;;;;;12.30;3.97;;;-0.40;99.90;;;;;;4917728;29;20233;-78
2024/01/19 17:56:47;;;;;;;15.57;4.33;;;-0.40;99.90;;;;;;4917773;29;20220;-77
2024/01/19 17:59:17;;;;;;;7.47;3.13;;;-0.50;99.90;;;;;;4917803;29;20232;-77
2024/01/19 18:01:44;;;;;;;12.13;4.43;;;-0.50;99.90;;;;;;4918009;29;20209;-77
2024/01/19 18:04:11;;;;;;;14.63;4.90;;;-0.40;99.90;;;;;;4915331;29;20301;-77
2024/01/19 18:06:38;;;;;;;11.07;4.30;;;-0.40;99.90;;;;;;4904970;29;20557;-78
2024/01/19 18:09:05;;;;;;;16.70;4.77;;;-0.40;99.90;;;;;;4909077;29;20238;-78
2024/01/19 18:11:33;;;;;;;11.53;3.73;;;-0.30;99.90;;;;;;4917191;29;20706;-77
2024/01/19 18:14:03;;;;;;;11.63;4.00;;;-0.40;99.90;;;;;;4909312;29;20594;-77
2024/01/19 18:16:30;;;;;;;13.77;3.20;;;-0.40;99.90;;;;;;4917462;29;20209;-77
2024/01/19 18:18:57;;;;;;;14.97;4.50;;;-0.30;99.90;;;;;;4917654;29;20229;-76
2024/01/19 18:21:24;;;;;;;13.83;4.60;;;-0.30;99.90;;;;;;4914551;29;20218;-77
2024/01/19 18:23:51;;;;;;;12.13;4.17;;;-0.20;99.90;;;;;;4907666;29;20268;-77
2024/01/19 18:26:18;;;;;;;11.27;4.20;;;-0.20;99.90;;;;;;4917274;29;20210;-76
2024/01/19 18:28:45;;;;;;;14.03;4.50;;;-0.10;99.90;;;;;;4917299;29;20728;-77
2024/01/19 18:31:13;;;;;;;11.30;4.60;;;-0.10;99.90;;;;;;4917222;29;20213;-78
2024/01/19 18:33:41;;;;;;;10.07;3.97;;;-0.10;99.90;;;;;;4917009;29;20570;-77
2024/01/19 18:36:08;;;;;;;13.53;3.60;;;-0.10;99.90;;;;;;4913890;29;20269;-76
2024/01/19 18:38:35;;;;;;;11.57;4.27;;;-0.10;99.90;;;;;;4910596;29;20233;-76
2024/01/19 18:41:03;;;;;;;10.13;3.67;;;-0.10;99.90;;;;;;4908338;29;20202;-77
2024/01/19 18:43:30;;;;;;;13.10;5.37;;;-0.20;99.90;;;;;;4916446;29;20261;-77
2024/01/19 18:45:58;;;;;;;10.60;4.53;;;-0.20;99.90;;;;;;4916947;29;20263;-77
2024/01/19 18:48:26;;;;;;;12.40;5.07;;;-0.10;99.90;;;;;;4916677;29;20225;-77
2024/01/19 18:50:53;;;;;;;13.07;3.87;;;-0.10;99.90;;;;;;4916941;29;20614;-77
2024/01/19 18:53:20;;;;;;;15.73;4.67;;;-0.20;99.90;;;;;;4916393;29;20328;-76
2024/01/19 18:55:52;;;;;;;12.40;4.87;;;-0.20;99.90;;;;;;4916925;29;20205;-77
2024/01/19 18:58:19;;;;;;;10.77;3.47;;;-0.30;99.90;;;;;;4916699;29;20229;-76
2024/01/19 19:00:46;;;;;;;15.37;4.03;;;-0.20;99.90;;;;;;4916781;29;20211;-77
2024/01/19 19:03:13;;;;;;;12.20;4.20;;;-0.30;99.90;;;;;;4916593;29;20233;-76
2024/01/19 19:05:42;;;;;;;14.50;4.50;;;-0.20;99.90;;;;;;4912421;29;20237;-77
2024/01/19 19:08:09;;;;;;;10.20;4.70;;;-0.20;99.90;;;;;;4912357;29;20237;-77
2024/01/19 19:10:36;;;;;;;9.93;3.93;;;-0.20;99.90;;;;;;4916378;29;20205;-77
2024/01/19 19:13:05;;;;;;;12.70;3.70;;;-0.10;99.90;;;;;;4910589;29;20307;-77
2024/01/19 19:15:32;;;;;;;11.33;4.47;;;-0.10;99.90;;;;;;4904524;29;20300;-78
2024/01/19 19:18:00;;;;;;;14.07;4.40;;;-0.10;99.90;;;;;;4912698;29;20304;-78
2024/01/19 19:20:27;;;;;;;15.87;4.53;;;-0.10;99.90;;;;;;4916314;29;20206;-76
2024/01/19 19:22:58;;;;;;;15.03;4.43;;;-0.20;99.90;;;;;;4916264;29;20709;-77
2024/01/19 19:25:26;;;;;;;16.03;4.63;;;0.00;99.90;;;;;;4917012;29;20565;-77
2024/01/19 19:27:55;;;;;;;11.37;4.43;;;0.00;99.90;;;;;;4916098;29;20228;-76
2024/01/19 19:30:22;;;;;;;13.30;4.40;;;0.00;99.90;;;;;;4916498;29;20214;-76
2024/01/19 19:32:49;;;;;;;14.00;5.30;;;0.00;99.90;;;;;;4916173;29;20237;-76
2024/01/19 19:35:18;;;;;;;8.97;3.77;;;-0.10;99.90;;;;;;4916197;29;20233;-77
2024/01/19 19:37:45;;;;;;;20.83;4.03;;;-0.10;99.90;;;;;;4915712;29;20700;-77
2024/01/19 19:40:13;;;;;;;10.83;4.07;;;0.00;99.90;;;;;;4917186;29;20617;-77
2024/01/19 19:42:40;;;;;;;11.53;4.43;;;0.00;99.90;;;;;;4932452;29;20213;-76
2024/01/19 19:45:09;;;;;;;15.20;4.23;;;0.00;99.90;;;;;;4933231;29;20238;-76
2024/01/19 19:47:36;;;;;;;12.87;3.73;;;0.00;99.90;;;;;;4911205;29;20237;-77
2024/01/19 19:50:04;;;;;;;10.10;3.83;;;0.10;99.90;;;;;;4903819;29;20278;-77
2024/01/19 19:52:31;;;;;;;11.00;4.30;;;0.10;99.90;;;;;;4914620;29;20222;-76
2024/01/19 19:54:58;;;;;;;19.97;4.93;;;0.10;99.90;;;;;;4916005;29;20290;-76
2024/01/19 19:57:26;;;;;;;7.63;3.47;;;0.10;99.90;;;;;;4918601;29;20724;-77
2024/01/19 19:59:53;;;;;;;14.73;4.40;;;0.10;99.90;;;;;;4919920;29;20213;-77
2024/01/19 20:02:22;;;;;;;10.80;4.17;;;0.10;99.90;;;;;;4919970;29;20209;-77
2024/01/19 20:04:49;;;;;;;15.73;4.53;;;0.10;99.90;;;;;;4919665;29;20220;-76
2024/01/19 20:07:16;;;;;;;9.60;3.70;;;0.10;99.90;;;;;;4920113;29;20226;-77
2024/01/19 20:09:43;;;;;;;9.47;3.60;;;0.00;99.90;;;;;;4919697;29;20594;-77
2024/01/19 20:12:10;;;;;;;17.47;4.10;;;0.00;99.90;;;;;;4920149;29;20220;-77
2024/01/19 20:14:38;;;;;;;13.23;4.10;;;0.00;99.90;;;;;;4908096;29;20233;-77
2024/01/19 20:17:05;;;;;;;13.50;4.13;;;0.00;99.90;;;;;;4919533;29;20296;-76
2024/01/19 20:19:32;;;;;;;11.57;3.77;;;0.10;99.90;;;;;;4919815;29;20213;-77
2024/01/19 20:21:59;;;;;;;11.90;3.20;;;0.20;99.90;;;;;;4919664;29;20640;-76
2024/01/19 20:24:26;;;;;;;12.10;4.00;;;0.30;99.90;;;;;;4919840;29;20736;-76
2024/01/19 20:26:54;;;;;;;15.43;2.20;;;0.20;99.90;;;;;;4919202;29;20209;-77
2024/01/19 20:29:21;;;;;;;6.97;2.67;;;0.30;99.90;;;;;;4919551;29;20309;-77
2024/01/19 20:31:49;;;;;;;10.83;3.90;;;0.30;99.90;;;;;;4918959;29;20217;-77
2024/01/19 20:34:16;;;;;;;12.47;2.53;;;0.30;99.90;;;;;;4919305;29;20249;-77
2024/01/19 20:36:43;;;;;;;10.27;3.40;;;0.10;99.90;;;;;;4919062;29;20269;-77
2024/01/19 20:39:10;;;;;;;13.63;4.57;;;0.20;99.90;;;;;;4919587;29;20241;-76
2024/01/19 20:41:37;;;;;;;13.13;3.80;;;0.20;99.90;;;;;;4919138;29;20704;-78
2024/01/19 20:44:05;;;;;;;18.10;3.87;;;0.20;99.90;;;;;;4919287;29;20265;-76
2024/01/19 20:46:31;;;;;;;10.40;2.83;;;0.20;99.90;;;;;;4918954;29;20661;-76
2024/01/19 20:49:00;;;;;;;11.73;3.43;;;0.20;99.90;;;;;;4919190;29;20257;-77
2024/01/19 20:51:27;;;;;;;15.90;4.27;;;0.30;99.90;;;;;;4918820;29;20217;-77
2024/01/19 20:53:54;;;;;;;9.90;4.10;;;0.20;99.90;;;;;;4919175;29;20664;-76
2024/01/19 20:56:21;;;;;;;11.57;3.20;;;0.20;99.90;;;;;;4918835;29;20447;-76
2024/01/19 20:58:48;;;;;;;15.20;3.63;;;0.20;99.90;;;;;;4919434;29;20685;-78
2024/01/19 21:01:14;;;;;;;12.30;3.27;;;0.20;99.90;;;;;;4918992;29;20256;-77
2024/01/19 21:03:45;;;;;;;8.10;3.30;;;0.20;99.90;;;;;;4919310;29;20213;-77
2024/01/19 21:06:13;;;;;;;13.17;3.53;;;0.20;99.90;;;;;;4918783;29;20202;-77
2024/01/19 21:08:41;;;;;;;13.53;4.00;;;0.20;99.90;;;;;;4918916;29;20230;-77
2024/01/19 21:11:08;;;;;;;13.53;3.13;;;0.30;99.90;;;;;;4918878;29;20213;-76
2024/01/19 21:13:35;;;;;;;9.57;3.43;;;0.30;99.90;;;;;;4919243;29;20300;-76
2024/01/19 21:16:01;;;;;;;11.80;3.67;;;0.30;99.90;;;;;;4918608;29;20320;-75
2024/01/19 21:18:29;;;;;;;12.23;3.80;;;0.30;99.90;;;;;;4918717;29;20225;-77
2024/01/19 21:20:56;;;;;;;15.93;3.77;;;0.30;99.90;;;;;;4918397;29;20653;-75
2024/01/19 21:23:25;;;;;;;10.57;3.53;;;0.30;99.90;;;;;;4918716;29;20606;-76
2024/01/19 21:25:53;;;;;;;11.70;3.47;;;0.40;99.90;;;;;;4918660;29;20704;-75
2024/01/19 21:28:20;;;;;;;11.27;3.20;;;0.40;99.90;;;;;;4918683;29;20288;-77
2024/01/19 21:30:47;;;;;;;11.23;3.47;;;0.30;99.90;;;;;;4918253;29;20209;-76
2024/01/19 21:33:14;;;;;;;7.37;2.47;;;0.20;99.90;;;;;;4918518;29;20225;-77
2024/01/19 21:35:41;;;;;;;14.57;3.47;;;0.20;99.90;;;;;;4917979;29;20237;-77
2024/01/19 21:38:07;;;;;;;12.27;2.87;;;0.20;99.90;;;;;;4918156;29;20237;-77
2024/01/19 21:40:36;;;;;;;4.07;2.20;;;0.20;99.90;;;;;;4918415;29;20249;-76
2024/01/19 21:43:04;;;;;;;10.17;1.67;;;0.30;99.90;;;;;;4918169;29;20225;-76
2024/01/19 21:45:30;;;;;;;11.67;3.70;;;0.20;99.90;;;;;;4906178;29;20213;-76
2024/01/19 21:47:57;;;;;;;10.57;3.67;;;0.20;99.90;;;;;;4917941;29;20261;-76
2024/01/19 21:50:24;;;;;;;10.03;3.53;;;0.20;99.90;;;;;;4918195;29;20213;-78
2024/01/19 21:52:51;;;;;;;13.93;2.87;;;0.20;99.90;;;;;;4917928;29;20293;-78
2024/01/19 21:55:19;;;;;;;9.20;2.73;;;0.30;99.90;;;;;;4918019;29;20237;-78
2024/01/19 21:57:47;;;;;;;7.80;2.80;;;0.30;99.90;;;;;;4918345;29;20284;-77
2024/01/19 22:00:15;;;;;;;11.97;4.07;;;0.20;99.90;;;;;;4917898;29;20218;-77
2024/01/19 22:02:46;;;;;;;9.20;2.93;;;0.20;99.90;;;;;;4917802;29;20255;-78
2024/01/19 22:05:12;;;;;;;8.27;3.30;;;0.20;99.90;;;;;;4917848;29;20212;-78
2024/01/19 22:07:40;;;;;;;9.50;2.83;;;0.20;99.90;;;;;;4917684;29;20234;-78
2024/01/19 22:10:08;;;;;;;11.07;3.00;;;0.30;99.90;;;;;;4917836;29;20210;-77
2024/01/19 22:12:35;;;;;;;13.47;2.73;;;0.20;99.90;;;;;;4917408;29;20283;-77
2024/01/19 22:15:03;;;;;;;14.20;3.30;;;0.30;99.90;;;;;;4917849;29;20238;-78
2024/01/19 22:17:30;;;;;;;12.13;4.00;;;0.20;99.90;;;;;;4917234;29;20681;-77
2024/01/19 22:19:57;;;;;;;10.53;2.77;;;0.20;99.90;;;;;;4916867;29;20248;-77
2024/01/19 22:22:25;;;;;;;11.47;3.60;;;0.30;99.90;;;;;;4917053;29;20206;-78
2024/01/19 22:24:52;;;;;;;5.33;2.17;;;0.10;99.90;;;;;;4917746;29;20257;-78
2024/01/19 22:27:19;;;;;;;9.10;2.83;;;0.10;99.90;;;;;;4917182;29;20249;-78
2024/01/19 22:29:46;;;;;;;7.97;2.93;;;0.00;99.90;;;;;;4917435;29;20300;-77
2024/01/19 22:32:14;;;;;;;14.27;3.43;;;0.10;99.90;;;;;;4917384;29;20297;-78
2024/01/19 22:34:41;;;;;;;10.63;3.47;;;0.20;99.90;;;;;;4915815;29;20323;-78
2024/01/19 22:37:08;;;;;;;12.87;3.97;;;0.20;99.90;;;;;;4916693;29;20209;-77
